createdAt,value
2023-04-25T00:02:13.142Z,7.70
2023-04-25T00:05:39.387Z,6.40
2023-04-25T00:08:14.817Z,5.10
2023-04-25T00:10:58.157Z,6.20
2023-04-25T00:13:57.952Z,4.70
2023-04-25T00:16:57.651Z,5.20
2023-04-25T00:19:59.700Z,6.20
2023-04-25T00:22:40.670Z,5.50
2023-04-25T00:25:17.097Z,5.70
2023-04-25T00:27:55.864Z,5.80
2023-04-25T00:30:36.019Z,7.80
2023-04-25T00:33:20.337Z,6.60
2023-04-25T00:36:21.174Z,7.10
2023-04-25T00:39:04.493Z,7.70
2023-04-25T00:41:43.232Z,5.40
2023-04-25T00:44:24.378Z,5.60
2023-04-25T00:47:21.282Z,5.30
2023-04-25T00:49:51.014Z,5.40
2023-04-25T00:53:27.644Z,7.60
2023-04-25T00:56:14.864Z,7.00
2023-04-25T00:58:58.727Z,6.40
2023-04-25T01:01:39.070Z,6.60
2023-04-25T01:04:15.184Z,6.50
2023-04-25T01:07:10.295Z,7.50
2023-04-25T01:09:55.106Z,8.80
2023-04-25T01:12:57.923Z,7.90
2023-04-25T01:15:37.224Z,7.60
2023-04-25T01:18:09.625Z,5.90
2023-04-25T01:20:49.447Z,5.50
2023-04-25T01:23:32.877Z,5.80
2023-04-25T01:26:07.190Z,6.20
2023-04-25T01:29:09.290Z,6.20
2023-04-25T01:32:00.527Z,7.20
2023-04-25T01:34:45.140Z,7.20
2023-04-25T01:37:42.058Z,7.30
2023-04-25T01:40:19.106Z,6.40
2023-04-25T01:42:55.477Z,7.90
2023-04-25T01:45:41.947Z,11.30
2023-04-25T01:48:19.386Z,11.10
2023-04-25T01:51:01.392Z,9.20
2023-04-25T01:54:06.040Z,8.00
2023-04-25T01:56:48.986Z,7.20
2023-04-25T01:59:40.292Z,8.40
2023-04-25T02:02:55.461Z,8.30
2023-04-25T02:05:48.569Z,7.70
2023-04-25T02:08:47.972Z,7.30
2023-04-25T02:11:26.817Z,6.30
2023-04-25T02:14:49.342Z,6.80
2023-04-25T02:18:08.013Z,7.10
2023-04-25T02:20:58.425Z,6.10
2023-04-25T02:23:36.636Z,6.40
2023-04-25T02:29:50.594Z,6.50
2023-04-25T02:32:34.017Z,6.80
2023-04-25T02:35:13.935Z,8.00
2023-04-25T02:37:59.990Z,7.30
2023-04-25T02:40:39.505Z,7.30
2023-04-25T02:43:18.777Z,8.20
2023-04-25T02:45:57.903Z,9.60
2023-04-25T02:48:32.936Z,9.90
2023-04-25T02:51:30.417Z,9.10
2023-04-25T02:54:21.480Z,9.10
2023-04-25T02:57:22.671Z,7.80
2023-04-25T02:59:57.781Z,6.80
2023-04-25T03:02:49.210Z,7.20
2023-04-25T03:05:46.837Z,7.60
2023-04-25T03:09:30.439Z,8.70
2023-04-25T03:15:08.742Z,12.90
2023-04-25T03:17:47.338Z,11.50
2023-04-25T03:20:23.938Z,13.40
2023-04-25T03:23:29.341Z,11.70
2023-04-25T03:26:29.061Z,13.90
2023-04-25T03:30:16.173Z,13.50
2023-04-25T03:33:05.178Z,13.50
2023-04-25T03:35:45.545Z,14.50
2023-04-25T03:38:28.517Z,14.60
2023-04-25T03:41:00.111Z,11.80
2023-04-25T03:43:59.178Z,13.20
2023-04-25T03:46:55.309Z,12.90
2023-04-25T03:49:36.301Z,13.20
2023-04-25T03:52:09.067Z,13.70
2023-04-25T03:54:48.915Z,12.70
2023-04-25T03:57:29.522Z,12.80
2023-04-25T04:00:04.823Z,13.10
2023-04-25T04:03:35.140Z,11.30
2023-04-25T04:06:11.862Z,10.70
2023-04-25T04:09:23.054Z,10.80
2023-04-25T04:21:03.821Z,12.50
2023-04-25T04:24:55.574Z,13.40
2023-04-25T04:29:22.348Z,13.50
2023-04-25T04:40:57.045Z,13.60
2023-04-25T04:48:51.166Z,11.10
2023-04-25T04:55:19.543Z,9.20
2023-04-25T04:59:07.002Z,8.00
2023-04-25T05:03:11.092Z,8.20
2023-04-25T05:34:56.862Z,7.30
2023-04-25T05:38:04.081Z,7.50
2023-04-25T05:41:40.304Z,6.80
2023-04-25T05:45:44.691Z,6.50
2023-04-25T05:49:20.658Z,7.60
2023-04-25T05:52:51.698Z,7.80
2023-04-25T05:56:37.286Z,8.10
2023-04-25T06:04:06.883Z,7.80
2023-04-25T06:07:25.107Z,7.80
2023-04-25T06:10:11.195Z,7.80
2023-04-25T06:18:21.875Z,7.30
2023-04-25T06:22:27.968Z,7.00
2023-04-25T06:38:33.208Z,6.80
2023-04-25T06:41:36.933Z,6.80
2023-04-25T06:44:24.495Z,6.10
2023-04-25T06:47:14.916Z,6.10
2023-04-25T06:59:23.016Z,8.10
2023-04-25T07:02:13.329Z,10.00
2023-04-25T07:09:57.203Z,9.80
2023-04-25T07:12:35.010Z,9.90
2023-04-25T07:15:24.450Z,10.40
2023-04-25T07:18:32.225Z,10.60
2023-04-25T07:26:06.926Z,9.90
2023-04-25T07:29:27.863Z,10.20
2023-04-25T07:32:50.547Z,11.00
2023-04-25T07:35:38.757Z,11.30
2023-04-25T07:38:13.002Z,10.90
2023-04-25T07:41:00.785Z,8.60
2023-04-25T07:43:56.595Z,9.90
2023-04-25T07:46:52.284Z,10.20
2023-04-25T07:53:38.852Z,9.50
2023-04-25T07:56:53.656Z,9.50
2023-04-25T07:59:35.188Z,9.00
2023-04-25T08:02:37.802Z,10.50
2023-04-25T08:05:51.359Z,15.50
2023-04-25T08:09:03.946Z,12.20
2023-04-25T08:12:36.972Z,10.40
2023-04-25T08:15:34.824Z,9.70
2023-04-25T08:18:42.757Z,8.60
2023-04-25T08:26:01.613Z,6.50
2023-04-25T08:28:45.954Z,7.50
2023-04-25T08:32:05.194Z,7.40
2023-04-25T08:34:49.758Z,6.60
2023-04-25T08:37:32.626Z,7.10
2023-04-25T08:40:10.044Z,6.80
2023-04-25T08:43:14.128Z,6.30
2023-04-25T08:45:55.544Z,6.80
2023-04-25T08:48:37.699Z,6.00
2023-04-25T08:51:30.970Z,6.30
2023-04-25T08:54:35.608Z,6.90
2023-04-25T08:57:25.154Z,5.90
2023-04-25T09:07:11.100Z,5.90
2023-04-25T09:10:20.606Z,5.80
2023-04-25T09:13:32.731Z,5.10
2023-04-25T09:17:05.794Z,5.50
2023-04-25T09:20:40.451Z,5.50
2023-04-25T09:23:25.624Z,5.80
2023-04-25T09:27:32.431Z,6.50
2023-04-25T09:30:21.568Z,6.20
2023-04-25T09:33:45.564Z,5.30
2023-04-25T10:00:52.739Z,4.10
2023-04-25T10:03:58.659Z,4.40
2023-04-25T10:12:53.035Z,3.60
2023-04-25T10:25:39.365Z,3.40
2023-04-25T10:28:59.058Z,3.90
2023-04-25T10:32:01.209Z,3.40
2023-04-25T10:34:58.702Z,3.80
2023-04-25T10:42:56.699Z,3.40
2023-04-25T10:59:27.073Z,2.90
2023-04-25T11:02:23.922Z,4.00
2023-04-25T11:05:58.280Z,3.30
2023-04-25T11:10:01.340Z,3.20
2023-04-25T11:22:24.398Z,2.40
2023-04-25T11:31:13.615Z,2.60
2023-04-25T11:34:33.330Z,2.40
2023-04-25T12:11:00.699Z,3.00
2023-04-25T12:18:25.129Z,2.30
2023-04-25T12:22:32.488Z,2.40
2023-04-25T12:31:02.972Z,2.50
2023-04-25T12:42:39.292Z,2.40
2023-04-25T13:06:43.746Z,2.10
2023-04-25T13:17:11.421Z,1.90
2023-04-25T13:20:31.042Z,2.10
2023-04-25T13:28:45.265Z,2.60
2023-04-25T13:31:55.566Z,2.30
2023-04-25T13:35:22.671Z,1.90
2023-04-25T13:38:01.288Z,1.80
2023-04-25T13:41:08.621Z,2.20
2023-04-25T13:43:53.542Z,2.50
2023-04-25T13:46:53.624Z,2.00
2023-04-25T13:49:38.383Z,2.20
2023-04-25T13:53:03.490Z,2.70
2023-04-25T13:55:53.686Z,2.90
2023-04-25T13:58:39.763Z,2.80
2023-04-25T14:02:10.160Z,2.70
2023-04-25T14:08:32.116Z,3.20
2023-04-25T14:11:28.253Z,2.80
2023-04-25T14:14:18.991Z,2.50
2023-04-25T14:17:16.648Z,2.20
2023-04-25T14:20:15.841Z,2.70
2023-04-25T14:23:07.146Z,3.00
2023-04-25T14:27:03.793Z,2.50
2023-04-25T14:30:28.690Z,3.10
2023-04-25T14:33:29.147Z,3.90
2023-04-25T14:36:29.535Z,3.20
2023-04-25T14:39:25.721Z,2.80
2023-04-25T14:42:25.824Z,2.30
2023-04-25T14:45:50.514Z,2.90
2023-04-25T14:48:54.777Z,3.50
2023-04-25T14:51:32.786Z,3.30
2023-04-25T14:55:01.949Z,4.10
2023-04-25T14:58:16.493Z,2.60
2023-04-25T15:01:32.454Z,3.20
2023-04-25T15:04:20.063Z,2.80
2023-04-25T15:07:45.573Z,2.60
2023-04-25T15:11:03.840Z,2.70
2023-04-25T15:13:54.109Z,2.40
2023-04-25T15:16:40.819Z,2.80
2023-04-25T15:20:01.059Z,2.50
2023-04-25T15:26:44.442Z,2.80
2023-04-25T15:29:41.176Z,2.70
2023-04-25T15:36:10.899Z,2.40
2023-04-25T15:38:46.112Z,2.80
2023-04-25T15:42:17.799Z,3.10
2023-04-25T15:45:32.920Z,2.70
2023-04-25T15:48:42.249Z,3.10
2023-04-25T15:52:24.033Z,2.70
2023-04-25T15:56:06.193Z,2.80
2023-04-25T16:23:12.547Z,3.30
2023-04-25T16:39:22.055Z,4.30
2023-04-25T16:43:05.329Z,4.00
2023-04-25T16:46:50.391Z,4.60
2023-04-25T16:54:21.426Z,6.60
2023-04-25T16:57:05.188Z,6.60
2023-04-25T17:08:16.664Z,12.00
2023-04-25T17:15:00.373Z,8.90
2023-04-25T17:18:24.539Z,7.50
2023-04-25T17:22:16.979Z,8.60
2023-04-25T17:40:54.078Z,10.20
2023-04-25T17:48:42.213Z,5.20
2023-04-25T17:56:43.752Z,5.20
2023-04-25T18:00:32.286Z,6.90
2023-04-25T18:04:32.579Z,5.80
2023-04-25T18:12:20.299Z,7.80
2023-04-25T18:15:11.960Z,8.10
2023-04-25T18:36:45.059Z,5.30
2023-04-25T18:41:10.762Z,6.00
2023-04-25T18:45:05.095Z,5.60
2023-04-25T18:48:55.179Z,4.60
2023-04-25T19:01:21.761Z,7.20
2023-04-25T19:04:06.747Z,7.60
2023-04-25T19:11:10.822Z,7.50
2023-04-25T19:19:44.966Z,6.70
2023-04-25T19:41:50.081Z,5.80
2023-04-25T19:49:52.686Z,5.00
2023-04-25T20:15:05.894Z,6.30
2023-04-25T20:37:33.217Z,4.30
2023-04-25T20:41:58.657Z,4.40
2023-04-25T20:59:31.831Z,3.70
2023-04-25T21:07:46.790Z,3.80
2023-04-25T21:11:32.428Z,3.70
2023-04-25T21:19:37.871Z,3.70
2023-04-25T21:27:44.021Z,3.40
2023-04-25T21:30:29.058Z,4.10
2023-04-25T21:33:29.363Z,3.90
2023-04-25T21:36:04.708Z,3.60
2023-04-25T21:43:09.740Z,3.40
2023-04-25T21:51:06.379Z,2.80
2023-04-25T21:54:40.484Z,3.50
2023-04-25T21:58:21.274Z,3.00
2023-04-25T22:01:24.880Z,2.80
2023-04-25T22:03:58.192Z,3.30
2023-04-25T22:06:37.898Z,3.20
2023-04-25T22:14:37.274Z,2.70
2023-04-25T22:17:14.781Z,3.10
2023-04-25T22:20:19.657Z,2.70
2023-04-25T22:23:49.791Z,2.80
2023-04-25T22:26:55.947Z,3.10
2023-04-25T22:29:31.701Z,2.90
2023-04-25T22:41:08.787Z,3.00
2023-04-25T22:43:50.268Z,3.30
2023-04-25T22:46:39.696Z,3.80
2023-04-25T22:49:20.469Z,3.60
2023-04-25T22:51:59.382Z,2.90
2023-04-25T22:55:12.616Z,3.10
2023-04-25T22:58:13.071Z,3.30
2023-04-25T23:01:18.255Z,3.60
2023-04-25T23:04:20.955Z,3.30
2023-04-25T23:07:09.674Z,3.30
2023-04-25T23:10:25.318Z,3.40
2023-04-25T23:13:18.829Z,3.20
2023-04-25T23:16:57.549Z,3.00
2023-04-25T23:20:12.150Z,3.20
2023-04-25T23:22:59.799Z,3.20
2023-04-25T23:25:51.267Z,3.10
2023-04-25T23:31:15.785Z,3.60
2023-04-25T23:34:01.080Z,3.80
2023-04-25T23:36:41.777Z,3.00
2023-04-25T23:39:32.426Z,3.00
2023-04-25T23:42:52.753Z,3.60
2023-04-25T23:45:24.364Z,3.50
2023-04-25T23:48:22.342Z,4.20
2023-04-25T23:50:57.908Z,3.80
2023-04-25T23:53:42.134Z,3.60
2023-04-25T23:57:06.922Z,4.80
2023-04-25T23:59:46.547Z,4.60
